Accident Cessna 172G Skyhawk N2976U, Monday 20 November 2023
ASN logo
 
This information is added by users of ASN. Neither ASN nor the Flight Safety Foundation are responsible for the completeness or correctness of this information. If you feel this information is incomplete or incorrect, you can submit corrected information.

Date:Monday 20 November 2023
Time:c. 16:45 UTC
Type:Silhouette image of generic C172 model; specific model in this crash may look slightly different    
Cessna 172G Skyhawk
Owner/operator:Private
Registration: N2976U
MSN: 17254525
Year of manufacture:1966
Fatalities:Fatalities: 0 / Occupants:
Other fatalities:0
Aircraft damage: Substantial
Category:Accident
Location:John Wayne Airport (SNA/KSNA), Santa Ana, CA -   United States of America
Phase: Standing
Nature:-
Departure airport:
Destination airport:
Narrative:
The aircraft overturned on the ramp in strong winds.


METAR:

Weather reported about the incident time 1645Z):
KSNA 201653Z 05022G33KT 10SM CLR 22/M11 A3011 RMK AO2 PK WND 05039/1614 SLP195 T02171106 PNO
KSNA 201553Z 06022G30KT 10SM CLR 21/M11 A3009 RMK AO2 PK WND 05035/1507 SLP188 T02061106 PNO

Sources:

https://www.youtube.com/watch?v=za5uWfDmv_Y

Revision history:

Date/timeContributorUpdates
20-Nov-2023 18:10 Captain Adam Added
20-Nov-2023 20:26 kb4tez Updated [Source, Narrative]
20-Nov-2023 20:27 harro Updated [Aircraft type, Registration, Cn, Other fatalities, Narrative]
20-Nov-2023 20:29 harro Updated [Time, Other fatalities, Phase, Nature, Narrative]
21-Nov-2023 05:16 RobertMB Updated [Time, Total occupants, Nature, Source, Damage, Narrative, Category]
21-Nov-2023 06:46 Captain Adam Updated [Nature, Departure airport, Destination airport, Source, Damage, Narrative]
21-Nov-2023 07:20 jussomeguy Updated [Narrative]

Corrections or additions? ... Edit this accident description

The Aviation Safety Network is an exclusive service provided by:
Quick Links:

CONNECT WITH US: FSF on social media FSF Facebook FSF Twitter FSF Youtube FSF LinkedIn FSF Instagram

©2024 Flight Safety Foundation

1920 Ballenger Av, 4th Fl.
Alexandria, Virginia 22314
www.FlightSafety.org